createdAt,value
2017-09-15T00:01:07.636Z,13.10
2017-09-15T00:03:35.937Z,13.00
2017-09-15T00:06:04.202Z,13.10
2017-09-15T00:08:32.500Z,13.00
2017-09-15T00:10:59.997Z,13.00
2017-09-15T00:13:27.580Z,13.10
2017-09-15T00:15:55.081Z,13.00
2017-09-15T00:18:22.620Z,13.10
2017-09-15T00:20:50.881Z,13.00
2017-09-15T00:23:18.376Z,13.00
2017-09-15T00:25:45.890Z,13.00
2017-09-15T00:28:13.384Z,13.10
2017-09-15T00:30:40.896Z,13.10
2017-09-15T00:33:08.392Z,13.10
2017-09-15T00:35:35.938Z,13.00
2017-09-15T00:38:04.188Z,13.00
2017-09-15T00:40:31.681Z,13.00
2017-09-15T00:42:59.220Z,13.00
2017-09-15T00:45:27.477Z,13.10
2017-09-15T00:47:54.981Z,13.10
2017-09-15T00:50:22.512Z,13.20
2017-09-15T00:52:50.782Z,13.20
2017-09-15T00:55:19.065Z,13.20
2017-09-15T00:57:47.328Z,13.20
2017-09-15T01:00:14.863Z,13.20
2017-09-15T01:02:42.357Z,13.20
2017-09-15T01:05:10.632Z,13.20
2017-09-15T01:07:38.932Z,13.20
2017-09-15T01:10:06.436Z,13.20
2017-09-15T01:12:33.928Z,13.20
2017-09-15T01:15:02.213Z,13.30
2017-09-15T01:17:29.760Z,13.20
2017-09-15T01:19:58.016Z,13.30
2017-09-15T01:22:26.276Z,13.20
2017-09-15T01:24:53.807Z,13.20
2017-09-15T01:27:21.308Z,13.20
2017-09-15T01:29:48.825Z,13.20
2017-09-15T01:32:16.324Z,13.20
2017-09-15T01:34:43.821Z,13.20
2017-09-15T01:37:11.339Z,13.20
2017-09-15T01:39:39.791Z,13.10
2017-09-15T01:42:07.289Z,13.10
2017-09-15T01:44:35.557Z,13.10
2017-09-15T01:47:03.832Z,13.00
2017-09-15T01:49:32.104Z,12.90
2017-09-15T01:52:00.407Z,13.00
2017-09-15T01:54:27.908Z,12.90
2017-09-15T01:56:55.412Z,13.00
2017-09-15T01:59:22.939Z,13.00
2017-09-15T02:01:50.438Z,13.00
2017-09-15T02:04:17.995Z,13.00
2017-09-15T02:06:45.499Z,12.90
2017-09-15T02:09:12.998Z,12.90
2017-09-15T02:11:41.277Z,12.90
2017-09-15T02:14:08.766Z,12.90
2017-09-15T02:16:36.278Z,12.90
2017-09-15T02:19:04.540Z,12.80
2017-09-15T02:21:32.937Z,12.90
2017-09-15T02:24:00.428Z,12.90
2017-09-15T02:26:27.920Z,12.90
2017-09-15T02:28:55.439Z,12.80
2017-09-15T02:31:22.937Z,12.90
2017-09-15T02:33:51.229Z,12.90
2017-09-15T02:36:19.488Z,12.90
2017-09-15T02:38:47.032Z,12.90
2017-09-15T02:41:14.529Z,12.90
2017-09-15T02:43:42.802Z,12.90
2017-09-15T02:46:11.084Z,12.90
2017-09-15T02:48:38.586Z,12.90
2017-09-15T02:51:06.111Z,12.90
2017-09-15T02:53:33.626Z,12.80
2017-09-15T02:56:01.154Z,12.80
2017-09-15T02:58:28.663Z,12.80
2017-09-15T03:00:56.913Z,12.80
2017-09-15T03:03:24.440Z,12.80
2017-09-15T03:05:51.929Z,12.80
2017-09-15T03:08:20.226Z,12.70
2017-09-15T03:10:48.481Z,12.60
2017-09-15T03:13:16.749Z,12.70
2017-09-15T03:15:44.267Z,12.60
2017-09-15T03:18:11.756Z,12.60
2017-09-15T03:20:39.285Z,12.60
2017-09-15T03:23:06.796Z,12.60
2017-09-15T03:25:35.057Z,12.60
2017-09-15T03:28:02.593Z,12.50
2017-09-15T03:30:30.122Z,12.50
2017-09-15T03:32:57.628Z,12.50
2017-09-15T03:35:25.157Z,12.60
2017-09-15T03:37:52.645Z,12.60
2017-09-15T03:40:20.183Z,12.50
2017-09-15T03:42:47.700Z,12.50
2017-09-15T03:45:15.213Z,12.50
2017-09-15T03:47:42.740Z,12.50
2017-09-15T03:50:10.235Z,12.50
2017-09-15T03:52:37.761Z,12.50
2017-09-15T03:55:05.262Z,12.50
2017-09-15T03:57:32.782Z,12.50
2017-09-15T04:00:00.281Z,12.50
2017-09-15T04:02:28.540Z,12.50
2017-09-15T04:04:56.832Z,12.50
2017-09-15T04:07:25.096Z,12.40
2017-09-15T04:09:53.380Z,12.40
2017-09-15T04:12:21.645Z,12.40
2017-09-15T04:14:49.176Z,12.30
2017-09-15T04:17:16.675Z,12.30
2017-09-15T04:19:44.952Z,12.20
2017-09-15T04:22:13.250Z,12.20
2017-09-15T04:24:40.741Z,12.10
2017-09-15T04:27:08.271Z,12.20
2017-09-15T04:29:35.769Z,12.10
2017-09-15T04:32:03.265Z,12.10
2017-09-15T04:34:30.776Z,12.00
2017-09-15T04:36:58.297Z,11.90
2017-09-15T04:39:25.808Z,12.00
2017-09-15T04:41:54.095Z,11.90
2017-09-15T04:44:22.392Z,12.00
2017-09-15T04:46:49.900Z,11.90
2017-09-15T04:49:17.414Z,11.90
2017-09-15T04:51:44.948Z,11.90
2017-09-15T04:54:13.204Z,11.90
2017-09-15T04:56:40.720Z,11.80
2017-09-15T04:59:08.253Z,11.80
2017-09-15T05:01:35.752Z,11.80
2017-09-15T05:04:03.269Z,11.80
2017-09-15T05:06:30.769Z,11.80
2017-09-15T05:08:58.301Z,11.80
2017-09-15T05:11:25.792Z,11.80
2017-09-15T05:13:53.312Z,11.80
2017-09-15T05:16:20.833Z,11.80
2017-09-15T05:18:49.115Z,11.80
2017-09-15T05:21:17.393Z,11.70
2017-09-15T05:23:45.664Z,11.70
2017-09-15T05:26:13.967Z,11.60
2017-09-15T05:28:41.483Z,11.60
2017-09-15T05:31:08.983Z,11.60
2017-09-15T05:33:36.496Z,11.60
2017-09-15T05:36:03.995Z,11.60
2017-09-15T05:38:31.532Z,11.70
2017-09-15T05:40:59.801Z,11.70
2017-09-15T05:43:28.061Z,11.60
2017-09-15T05:45:55.582Z,11.60
2017-09-15T05:48:23.080Z,11.60
2017-09-15T05:50:51.372Z,11.50
2017-09-15T05:53:19.648Z,11.50
2017-09-15T05:55:47.996Z,11.50
2017-09-15T05:58:15.500Z,11.60
2017-09-15T06:00:43.016Z,11.60
2017-09-15T06:03:10.562Z,11.70
2017-09-15T06:05:38.073Z,11.70
2017-09-15T06:08:05.601Z,11.80
2017-09-15T06:10:33.100Z,11.80
2017-09-15T06:13:00.626Z,11.90
2017-09-15T06:15:28.888Z,11.90
2017-09-15T06:17:56.380Z,11.90
2017-09-15T06:20:23.903Z,12.00
2017-09-15T06:22:51.404Z,12.00
2017-09-15T06:25:18.938Z,12.10
2017-09-15T06:27:47.215Z,12.20
2017-09-15T06:30:14.748Z,12.10
2017-09-15T06:32:42.275Z,12.10
2017-09-15T06:35:09.773Z,12.10
2017-09-15T06:37:38.061Z,12.20
2017-09-15T06:40:06.332Z,12.20
2017-09-15T06:42:34.600Z,12.30
2017-09-15T06:45:02.901Z,12.40
2017-09-15T06:47:30.388Z,12.40
2017-09-15T06:49:57.934Z,12.50
2017-09-15T06:52:25.461Z,12.50
2017-09-15T06:54:53.755Z,12.70
2017-09-15T06:57:21.272Z,12.60
2017-09-15T06:59:49.551Z,12.70
2017-09-15T07:02:17.853Z,12.80
2017-09-15T07:04:45.369Z,12.80
2017-09-15T07:07:12.899Z,12.80
2017-09-15T07:09:40.405Z,12.90
2017-09-15T07:12:08.692Z,13.00
2017-09-15T07:14:36.970Z,13.00
2017-09-15T07:17:05.222Z,13.10
2017-09-15T07:19:33.508Z,13.10
2017-09-15T07:22:01.821Z,13.20
2017-09-15T07:24:29.341Z,13.20
2017-09-15T07:26:57.644Z,13.20
2017-09-15T07:29:25.160Z,13.20
2017-09-15T07:31:52.656Z,13.20
2017-09-15T07:34:20.168Z,13.30
2017-09-15T07:36:47.688Z,13.30
2017-09-15T07:39:15.197Z,13.40
2017-09-15T07:41:43.465Z,13.50
2017-09-15T07:44:10.984Z,13.50
2017-09-15T07:46:38.499Z,13.60
2017-09-15T07:49:06.796Z,13.80
2017-09-15T07:51:34.305Z,13.80
2017-09-15T07:54:01.861Z,13.90
2017-09-15T07:56:29.419Z,14.00
2017-09-15T07:58:56.914Z,14.10
2017-09-15T08:01:25.230Z,14.30
2017-09-15T08:03:52.739Z,14.20
2017-09-15T08:06:20.996Z,14.50
2017-09-15T08:08:48.526Z,14.50
2017-09-15T08:11:16.024Z,14.60
2017-09-15T08:13:44.329Z,14.70
2017-09-15T08:16:11.828Z,14.70
2017-09-15T08:18:39.329Z,14.80
2017-09-15T08:21:06.840Z,14.90
2017-09-15T08:23:34.331Z,14.90
2017-09-15T08:26:02.614Z,15.00
2017-09-15T08:28:30.897Z,15.10
2017-09-15T08:30:58.393Z,15.10
2017-09-15T08:33:25.901Z,15.20
2017-09-15T08:35:54.152Z,15.20
2017-09-15T08:38:21.691Z,15.20
2017-09-15T08:40:49.208Z,15.30
2017-09-15T08:43:16.711Z,15.40
2017-09-15T08:45:44.240Z,15.50
2017-09-15T08:48:11.742Z,15.60
2017-09-15T08:50:39.240Z,15.70
2017-09-15T08:53:06.769Z,15.80
2017-09-15T08:55:35.056Z,16.00
2017-09-15T08:58:03.341Z,16.10
2017-09-15T09:00:30.844Z,16.10
2017-09-15T09:02:58.351Z,16.30
2017-09-15T09:05:25.845Z,16.40
2017-09-15T09:07:53.389Z,16.50
2017-09-15T09:10:20.885Z,16.60
2017-09-15T09:12:49.160Z,16.70
2017-09-15T09:15:17.466Z,16.90
2017-09-15T09:17:44.978Z,16.90
2017-09-15T09:20:12.482Z,17.10
2017-09-15T09:22:40.762Z,17.20
2017-09-15T09:25:09.019Z,17.30
2017-09-15T09:27:37.312Z,17.40
2017-09-15T09:30:04.871Z,17.40
2017-09-15T09:32:32.366Z,17.40
2017-09-15T09:34:59.880Z,17.60
2017-09-15T09:37:28.178Z,17.90
2017-09-15T09:39:55.684Z,17.90
2017-09-15T09:42:24.695Z,17.80
2017-09-15T09:44:52.973Z,17.80
2017-09-15T09:47:21.251Z,17.80
2017-09-15T09:49:49.548Z,17.70
2017-09-15T09:52:17.049Z,17.70
2017-09-15T09:54:44.557Z,17.50
2017-09-15T09:57:12.098Z,17.50
2017-09-15T09:59:40.364Z,17.30
2017-09-15T10:02:07.883Z,17.30
2017-09-15T10:04:35.376Z,17.30
2017-09-15T10:07:02.878Z,17.40
2017-09-15T10:09:30.398Z,17.50
2017-09-15T10:11:58.664Z,17.70
2017-09-15T10:14:26.197Z,17.70
2017-09-15T10:16:53.700Z,17.70
2017-09-15T10:19:21.215Z,17.70
2017-09-15T10:21:48.736Z,17.70
2017-09-15T10:24:16.236Z,17.60
2017-09-15T10:26:43.766Z,17.60
2017-09-15T10:29:11.263Z,17.50
2017-09-15T10:31:38.756Z,17.30
2017-09-15T10:34:06.278Z,17.10
2017-09-15T10:36:33.789Z,17.00
2017-09-15T10:39:01.305Z,16.90
2017-09-15T10:41:29.565Z,16.70
2017-09-15T10:43:57.105Z,16.70
2017-09-15T10:46:24.618Z,16.70
2017-09-15T10:48:52.128Z,16.70
2017-09-15T10:51:19.632Z,16.80
2017-09-15T10:53:47.141Z,17.10
2017-09-15T10:56:14.752Z,17.50
2017-09-15T10:58:48.016Z,18.00
2017-09-15T11:01:16.343Z,18.60
2017-09-15T11:03:43.873Z,18.60
2017-09-15T11:06:11.383Z,18.30
2017-09-15T11:08:38.901Z,18.20
2017-09-15T11:11:06.400Z,18.20
2017-09-15T11:13:35.424Z,18.30
2017-09-15T11:16:03.713Z,18.30
2017-09-15T11:18:31.225Z,18.30
2017-09-15T11:20:58.721Z,18.40
2017-09-15T11:23:27.005Z,18.40
2017-09-15T11:25:54.541Z,18.40
2017-09-15T11:28:22.796Z,19.10
2017-09-15T11:30:50.306Z,19.10
2017-09-15T11:33:17.792Z,19.20
2017-09-15T11:35:45.658Z,19.30
2017-09-15T11:38:13.190Z,19.50
2017-09-15T11:40:40.685Z,19.70
2017-09-15T11:43:09.149Z,20.00
2017-09-15T11:45:36.657Z,20.30
2017-09-15T11:48:04.945Z,20.90
2017-09-15T11:50:32.467Z,20.90
2017-09-15T11:52:59.990Z,21.20
2017-09-15T11:55:27.509Z,21.50
2017-09-15T11:57:55.769Z,22.10
2017-09-15T12:00:24.081Z,22.40
2017-09-15T12:02:51.581Z,22.30
2017-09-15T12:05:19.126Z,22.60
2017-09-15T12:07:46.664Z,22.90
2017-09-15T12:10:14.161Z,23.10
2017-09-15T12:12:41.697Z,23.20
2017-09-15T12:15:09.188Z,23.20
2017-09-15T12:17:37.446Z,22.60
2017-09-15T12:20:05.006Z,22.60
2017-09-15T12:22:32.509Z,22.20
2017-09-15T12:25:00.042Z,21.90
2017-09-15T12:27:28.336Z,21.20
2017-09-15T12:29:55.853Z,21.20
2017-09-15T12:32:23.356Z,21.00
2017-09-15T12:34:50.899Z,20.70
2017-09-15T12:37:19.164Z,20.30
2017-09-15T12:39:47.445Z,20.10
2017-09-15T12:42:15.750Z,20.00
2017-09-15T12:44:43.237Z,19.90
2017-09-15T12:47:10.764Z,19.80
2017-09-15T12:49:38.255Z,19.70
2017-09-15T12:52:05.761Z,19.60
2017-09-15T12:54:33.280Z,19.50
2017-09-15T12:57:00.778Z,19.40
2017-09-15T12:59:28.292Z,19.30
2017-09-15T13:01:55.807Z,19.20
2017-09-15T13:04:23.339Z,19.10
2017-09-15T13:06:51.600Z,19.00
2017-09-15T13:09:19.112Z,19.00
2017-09-15T13:11:46.638Z,19.00
2017-09-15T13:14:14.132Z,18.90
2017-09-15T13:16:41.653Z,18.80
2017-09-15T13:19:09.156Z,18.80
2017-09-15T13:21:36.646Z,19.00
2017-09-15T13:24:04.950Z,19.90
2017-09-15T13:26:32.484Z,19.80
2017-09-15T13:29:00.786Z,20.40
2017-09-15T13:31:28.285Z,20.40
2017-09-15T13:33:55.818Z,20.60
2017-09-15T13:36:23.329Z,20.60
2017-09-15T13:38:51.616Z,20.50
2017-09-15T13:41:19.919Z,20.30
2017-09-15T13:43:47.448Z,20.30
2017-09-15T13:46:15.761Z,20.20
2017-09-15T13:48:43.279Z,20.10
2017-09-15T13:51:11.568Z,20.60
2017-09-15T13:53:39.066Z,20.60
2017-09-15T13:56:06.610Z,20.90
2017-09-15T13:58:34.118Z,21.10
2017-09-15T14:01:02.389Z,20.60
2017-09-15T14:03:29.976Z,20.60
2017-09-15T14:05:57.470Z,20.40
2017-09-15T14:08:24.960Z,20.20
2017-09-15T14:10:52.502Z,20.10
2017-09-15T14:13:20.787Z,20.10
2017-09-15T14:15:49.786Z,20.10
2017-09-15T14:18:17.373Z,20.10
2017-09-15T14:20:44.890Z,20.10
2017-09-15T14:23:12.382Z,20.10
2017-09-15T14:25:40.725Z,20.10
2017-09-15T14:28:08.223Z,20.10
2017-09-15T14:30:36.116Z,20.10
2017-09-15T14:33:03.637Z,20.00
2017-09-15T14:35:31.132Z,19.90
2017-09-15T14:37:58.660Z,19.80
2017-09-15T14:40:26.212Z,19.70
2017-09-15T14:42:53.726Z,19.60
2017-09-15T14:45:21.246Z,19.50
2017-09-15T14:47:48.748Z,19.40
2017-09-15T14:50:16.324Z,19.30
2017-09-15T14:52:44.585Z,19.10
2017-09-15T14:55:12.844Z,19.00
2017-09-15T14:57:40.421Z,19.00
2017-09-15T15:00:07.979Z,18.80
2017-09-15T15:02:37.013Z,18.50
2017-09-15T15:05:04.515Z,18.50
2017-09-15T15:07:32.034Z,18.30
2017-09-15T15:09:59.773Z,18.10
2017-09-15T15:12:28.186Z,17.70
2017-09-15T15:14:55.690Z,17.70
2017-09-15T15:17:23.194Z,17.60
2017-09-15T15:19:50.729Z,17.50
2017-09-15T15:22:18.992Z,17.60
2017-09-15T15:24:47.316Z,17.60
2017-09-15T15:27:14.851Z,17.60
2017-09-15T15:29:42.353Z,17.60
2017-09-15T15:32:09.894Z,17.60
2017-09-15T15:34:37.392Z,17.60
2017-09-15T15:37:04.966Z,17.70
2017-09-15T15:39:33.224Z,17.80
2017-09-15T15:42:02.172Z,17.70
2017-09-15T15:44:29.682Z,17.70
2017-09-15T15:46:57.954Z,17.60
2017-09-15T15:49:26.292Z,17.60
2017-09-15T15:51:54.090Z,17.60
2017-09-15T15:54:22.375Z,17.40
2017-09-15T15:56:50.649Z,17.40
2017-09-15T15:59:18.967Z,17.30
2017-09-15T16:01:46.614Z,17.30
2017-09-15T16:04:14.260Z,17.30
2017-09-15T16:06:41.841Z,17.30
2017-09-15T16:09:09.332Z,17.30
2017-09-15T16:11:36.917Z,17.30
2017-09-15T16:14:05.200Z,17.30
2017-09-15T16:16:33.485Z,17.30
2017-09-15T16:19:01.885Z,17.30
2017-09-15T16:21:29.616Z,17.30
2017-09-15T16:23:58.029Z,17.20
2017-09-15T16:26:25.544Z,17.20
2017-09-15T16:28:54.080Z,17.10
2017-09-15T16:31:21.679Z,17.10
2017-09-15T16:33:49.206Z,17.10
2017-09-15T16:36:16.940Z,17.00
2017-09-15T16:38:50.122Z,17.00
2017-09-15T16:41:23.504Z,16.90
2017-09-15T16:43:57.553Z,16.90
2017-09-15T16:46:30.796Z,16.90
2017-09-15T16:49:04.752Z,16.90
2017-09-15T16:51:32.453Z,16.90
2017-09-15T16:53:59.982Z,16.90
2017-09-15T16:56:27.490Z,16.90
2017-09-15T16:58:55.881Z,16.80
2017-09-15T17:01:23.380Z,16.80
2017-09-15T17:03:50.894Z,16.70
2017-09-15T17:06:18.465Z,16.60
2017-09-15T17:08:45.961Z,16.60
2017-09-15T17:11:13.580Z,16.50
2017-09-15T17:13:41.069Z,16.50
2017-09-15T17:16:08.689Z,16.40
2017-09-15T17:18:36.180Z,16.30
2017-09-15T17:21:03.909Z,16.20
2017-09-15T17:23:31.424Z,16.20
2017-09-15T17:26:00.421Z,16.00
2017-09-15T17:28:28.120Z,16.00
2017-09-15T17:30:55.625Z,15.90
2017-09-15T17:33:23.223Z,15.90
2017-09-15T17:35:51.486Z,15.80
2017-09-15T17:38:19.748Z,15.70
2017-09-15T17:40:47.415Z,15.70
2017-09-15T17:43:14.921Z,15.60
2017-09-15T17:45:42.570Z,15.50
2017-09-15T17:48:10.086Z,15.50
2017-09-15T17:50:38.512Z,15.30
2017-09-15T17:53:06.020Z,15.30
2017-09-15T17:55:34.308Z,15.30
2017-09-15T17:58:02.713Z,15.20
2017-09-15T18:00:30.229Z,15.20
2017-09-15T18:02:57.734Z,15.20
2017-09-15T18:05:25.397Z,15.20
2017-09-15T18:07:53.066Z,15.10
2017-09-15T18:10:20.583Z,15.10
2017-09-15T18:12:48.869Z,15.10
2017-09-15T18:15:17.150Z,15.20
2017-09-15T18:17:44.652Z,15.10
2017-09-15T18:20:12.220Z,15.20
2017-09-15T18:22:39.754Z,15.10
2017-09-15T18:25:07.271Z,15.10
2017-09-15T18:27:35.564Z,15.10
2017-09-15T18:30:03.098Z,15.10
2017-09-15T18:32:31.393Z,15.00
2017-09-15T18:34:58.893Z,15.00
2017-09-15T18:37:26.435Z,15.00
2017-09-15T18:39:53.957Z,15.00
2017-09-15T18:42:22.224Z,15.00
2017-09-15T18:44:50.530Z,15.00
2017-09-15T18:47:18.033Z,14.90
2017-09-15T18:49:45.585Z,15.00
2017-09-15T18:52:13.090Z,15.00
2017-09-15T18:54:40.631Z,15.00
2017-09-15T18:57:08.929Z,14.90
2017-09-15T18:59:36.432Z,14.90
2017-09-15T19:02:03.976Z,14.90
2017-09-15T19:04:31.489Z,15.00
2017-09-15T19:06:59.782Z,14.90
2017-09-15T19:09:27.357Z,14.90
2017-09-15T19:11:54.881Z,14.90
2017-09-15T19:14:23.265Z,14.80
2017-09-15T19:16:50.778Z,14.80
2017-09-15T19:19:19.065Z,14.70
2017-09-15T19:21:46.570Z,14.70
2017-09-15T19:24:14.086Z,14.80
2017-09-15T19:26:42.437Z,14.70
2017-09-15T19:29:09.960Z,14.70
2017-09-15T19:31:37.477Z,14.70
2017-09-15T19:34:05.045Z,14.70
2017-09-15T19:36:33.322Z,14.60
2017-09-15T19:39:01.647Z,14.60
2017-09-15T19:41:29.381Z,14.60
2017-09-15T19:43:56.933Z,14.50
2017-09-15T19:46:24.460Z,14.50
2017-09-15T19:48:52.029Z,14.40
2017-09-15T19:51:20.289Z,14.30
2017-09-15T19:53:47.826Z,14.30
2017-09-15T19:56:15.363Z,14.30
2017-09-15T19:58:42.918Z,14.30
2017-09-15T20:01:10.466Z,14.30
2017-09-15T20:03:37.985Z,14.30
2017-09-15T20:06:07.012Z,14.30
2017-09-15T20:08:34.521Z,14.30
2017-09-15T20:11:02.056Z,14.40
2017-09-15T20:13:29.582Z,14.40
2017-09-15T20:15:57.112Z,14.40
2017-09-15T20:18:24.647Z,14.40
2017-09-15T20:20:52.147Z,14.30
2017-09-15T20:23:20.459Z,14.30
2017-09-15T20:25:47.961Z,14.30
2017-09-15T20:28:16.220Z,14.30
2017-09-15T20:30:43.774Z,14.30
2017-09-15T20:33:11.273Z,14.30
2017-09-15T20:35:39.581Z,14.30
2017-09-15T20:38:07.077Z,14.30
2017-09-15T20:40:34.589Z,14.30
2017-09-15T20:43:02.134Z,14.30
2017-09-15T20:45:29.703Z,14.30
2017-09-15T20:47:57.248Z,14.30
2017-09-15T20:50:24.773Z,14.30
2017-09-15T20:52:52.289Z,14.30
2017-09-15T20:55:19.793Z,14.30
2017-09-15T20:57:48.092Z,14.20
2017-09-15T21:00:15.619Z,14.20
2017-09-15T21:02:43.137Z,14.20
2017-09-15T21:05:10.647Z,14.20
2017-09-15T21:07:38.917Z,14.10
2017-09-15T21:10:07.214Z,14.00
2017-09-15T21:12:34.729Z,14.00
2017-09-15T21:15:02.285Z,13.90
2017-09-15T21:17:29.811Z,13.80
2017-09-15T21:19:57.357Z,13.70
2017-09-15T21:22:24.852Z,13.70
2017-09-15T21:24:52.408Z,13.70
2017-09-15T21:27:19.940Z,13.70
2017-09-15T21:29:47.445Z,13.70
2017-09-15T21:32:14.996Z,13.60
2017-09-15T21:34:42.497Z,13.60
2017-09-15T21:37:10.034Z,13.50
2017-09-15T21:39:38.309Z,13.40
2017-09-15T21:42:06.632Z,13.40
2017-09-15T21:44:34.138Z,13.40
2017-09-15T21:47:02.424Z,13.40
2017-09-15T21:49:29.980Z,13.40
2017-09-15T21:51:58.261Z,13.30
2017-09-15T21:54:25.792Z,13.30
2017-09-15T21:56:53.294Z,13.20
2017-09-15T21:59:20.848Z,13.20
2017-09-15T22:01:48.344Z,13.10
2017-09-15T22:04:21.485Z,13.00
2017-09-15T22:06:49.014Z,13.00
2017-09-15T22:09:16.522Z,12.90
2017-09-15T22:11:44.059Z,13.00
2017-09-15T22:14:11.570Z,12.90
2017-09-15T22:16:39.147Z,12.90
2017-09-15T22:19:06.658Z,12.80
2017-09-15T22:21:34.151Z,12.80
2017-09-15T22:24:01.718Z,12.80
2017-09-15T22:26:29.226Z,12.80
2017-09-15T22:28:56.728Z,12.70
2017-09-15T22:31:24.249Z,12.70
2017-09-15T22:33:51.752Z,12.70
2017-09-15T22:36:19.283Z,12.70
2017-09-15T22:38:46.862Z,12.70
2017-09-15T22:41:14.480Z,12.70
2017-09-15T22:43:42.346Z,12.70
2017-09-15T22:46:10.056Z,12.70
2017-09-15T22:48:38.718Z,12.70
2017-09-15T22:51:07.193Z,12.70
2017-09-15T22:53:34.700Z,12.70
2017-09-15T22:56:02.969Z,12.70
2017-09-15T22:58:30.530Z,12.70
2017-09-15T23:00:58.103Z,12.70
2017-09-15T23:03:25.641Z,12.60
2017-09-15T23:05:53.912Z,12.60
2017-09-15T23:08:22.177Z,12.60
2017-09-15T23:10:49.700Z,12.60
2017-09-15T23:13:17.194Z,12.60
2017-09-15T23:15:44.720Z,12.60
2017-09-15T23:18:12.225Z,12.50
2017-09-15T23:20:40.514Z,12.50
2017-09-15T23:23:08.009Z,12.40
2017-09-15T23:25:35.567Z,12.40
2017-09-15T23:28:03.072Z,12.30
2017-09-15T23:30:31.333Z,12.00
2017-09-15T23:32:59.633Z,11.90
2017-09-15T23:35:27.134Z,11.90
2017-09-15T23:37:54.628Z,11.80
2017-09-15T23:40:22.923Z,11.60
2017-09-15T23:42:50.417Z,11.50
2017-09-15T23:45:17.936Z,11.50
2017-09-15T23:47:45.436Z,11.40
2017-09-15T23:50:12.964Z,11.40
2017-09-15T23:52:40.457Z,11.50
2017-09-15T23:55:07.996Z,11.50
2017-09-15T23:57:35.511Z,11.60
